sensor_id;sensor_type;location;lat;lon;timestamp;P1;durP1;ratioP1;P2;durP2;ratioP2
78885;SDS011;68269;52.514;5.722;2023-07-13T00:02:31;3.58;;;0.70;;
78885;SDS011;68269;52.514;5.722;2023-07-13T00:05:00;3.58;;;0.73;;
78885;SDS011;68269;52.514;5.722;2023-07-13T00:07:30;4.50;;;0.55;;
78885;SDS011;68269;52.514;5.722;2023-07-13T00:09:59;4.30;;;0.98;;
78885;SDS011;68269;52.514;5.722;2023-07-13T00:12:31;4.15;;;0.47;;
78885;SDS011;68269;52.514;5.722;2023-07-13T00:15:07;7.80;;;1.17;;
78885;SDS011;68269;52.514;5.722;2023-07-13T00:17:48;5.80;;;0.80;;
78885;SDS011;68269;52.514;5.722;2023-07-13T00:20:18;6.22;;;0.82;;
78885;SDS011;68269;52.514;5.722;2023-07-13T00:22:50;3.20;;;0.77;;
78885;SDS011;68269;52.514;5.722;2023-07-13T00:25:21;3.67;;;0.77;;
78885;SDS011;68269;52.514;5.722;2023-07-13T00:30:26;9.77;;;0.95;;
78885;SDS011;68269;52.514;5.722;2023-07-13T00:32:57;8.25;;;1.17;;
78885;SDS011;68269;52.514;5.722;2023-07-13T00:35:27;7.78;;;1.20;;
78885;SDS011;68269;52.514;5.722;2023-07-13T00:37:59;7.55;;;1.25;;
78885;SDS011;68269;52.514;5.722;2023-07-13T00:40:29;5.50;;;1.02;;
78885;SDS011;68269;52.514;5.722;2023-07-13T00:42:59;7.03;;;1.48;;
78885;SDS011;68269;52.514;5.722;2023-07-13T00:48:32;8.48;;;1.42;;
78885;SDS011;68269;52.514;5.722;2023-07-13T00:51:02;8.80;;;1.33;;
78885;SDS011;68269;52.514;5.722;2023-07-13T00:53:32;8.25;;;1.00;;
78885;SDS011;68269;52.514;5.722;2023-07-13T00:56:02;10.38;;;1.20;;
78885;SDS011;68269;52.514;5.722;2023-07-13T00:58:32;9.43;;;1.08;;
78885;SDS011;68269;52.514;5.722;2023-07-13T01:01:03;7.18;;;1.05;;
78885;SDS011;68269;52.514;5.722;2023-07-13T01:03:36;7.90;;;1.20;;
78885;SDS011;68269;52.514;5.722;2023-07-13T01:06:06;8.55;;;1.30;;
78885;SDS011;68269;52.514;5.722;2023-07-13T01:08:36;6.55;;;1.23;;
78885;SDS011;68269;52.514;5.722;2023-07-13T01:11:06;8.55;;;1.42;;
78885;SDS011;68269;52.514;5.722;2023-07-13T01:13:36;11.02;;;2.08;;
78885;SDS011;68269;52.514;5.722;2023-07-13T01:16:11;7.47;;;1.33;;
78885;SDS011;68269;52.514;5.722;2023-07-13T01:18:56;6.07;;;1.00;;
78885;SDS011;68269;52.514;5.722;2023-07-13T01:21:31;8.50;;;1.63;;
78885;SDS011;68269;52.514;5.722;2023-07-13T01:24:02;7.18;;;1.33;;
78885;SDS011;68269;52.514;5.722;2023-07-13T01:26:31;7.15;;;1.33;;
78885;SDS011;68269;52.514;5.722;2023-07-13T01:29:01;6.07;;;1.25;;
78885;SDS011;68269;52.514;5.722;2023-07-13T01:31:31;6.18;;;0.93;;
78885;SDS011;68269;52.514;5.722;2023-07-13T01:34:00;7.88;;;1.13;;
78885;SDS011;68269;52.514;5.722;2023-07-13T01:36:33;8.65;;;1.98;;
78885;SDS011;68269;52.514;5.722;2023-07-13T01:39:02;9.27;;;1.67;;
78885;SDS011;68269;52.514;5.722;2023-07-13T01:41:32;6.93;;;0.90;;
78885;SDS011;68269;52.514;5.722;2023-07-13T01:44:01;10.43;;;1.25;;
78885;SDS011;68269;52.514;5.722;2023-07-13T01:46:30;7.88;;;1.92;;
78885;SDS011;68269;52.514;5.722;2023-07-13T01:49:00;5.50;;;0.88;;
78885;SDS011;68269;52.514;5.722;2023-07-13T01:51:29;14.60;;;1.52;;
78885;SDS011;68269;52.514;5.722;2023-07-13T01:54:01;9.40;;;1.10;;
78885;SDS011;68269;52.514;5.722;2023-07-13T01:56:30;7.55;;;0.93;;
78885;SDS011;68269;52.514;5.722;2023-07-13T01:59:00;8.50;;;1.35;;
78885;SDS011;68269;52.514;5.722;2023-07-13T02:01:29;6.90;;;1.65;;
78885;SDS011;68269;52.514;5.722;2023-07-13T02:03:58;5.68;;;1.05;;
78885;SDS011;68269;52.514;5.722;2023-07-13T02:06:32;7.10;;;1.17;;
78885;SDS011;68269;52.514;5.722;2023-07-13T02:09:04;6.80;;;1.35;;
78885;SDS011;68269;52.514;5.722;2023-07-13T02:11:33;8.65;;;1.17;;
78885;SDS011;68269;52.514;5.722;2023-07-13T02:14:03;4.95;;;0.90;;
78885;SDS011;68269;52.514;5.722;2023-07-13T02:16:32;7.28;;;1.05;;
78885;SDS011;68269;52.514;5.722;2023-07-13T02:19:01;5.20;;;0.70;;
78885;SDS011;68269;52.514;5.722;2023-07-13T02:21:32;8.18;;;1.48;;
78885;SDS011;68269;52.514;5.722;2023-07-13T02:24:04;8.13;;;1.50;;
78885;SDS011;68269;52.514;5.722;2023-07-13T02:26:34;10.82;;;1.20;;
78885;SDS011;68269;52.514;5.722;2023-07-13T02:29:03;5.07;;;0.82;;
78885;SDS011;68269;52.514;5.722;2023-07-13T02:31:33;5.65;;;1.10;;
78885;SDS011;68269;52.514;5.722;2023-07-13T02:34:02;3.63;;;0.73;;
78885;SDS011;68269;52.514;5.722;2023-07-13T02:36:32;10.68;;;0.80;;
78885;SDS011;68269;52.514;5.722;2023-07-13T02:39:04;9.10;;;1.00;;
78885;SDS011;68269;52.514;5.722;2023-07-13T02:41:35;10.02;;;1.35;;
78885;SDS011;68269;52.514;5.722;2023-07-13T02:44:05;6.90;;;1.05;;
78885;SDS011;68269;52.514;5.722;2023-07-13T02:46:35;10.10;;;1.00;;
78885;SDS011;68269;52.514;5.722;2023-07-13T02:49:05;8.00;;;0.70;;
78885;SDS011;68269;52.514;5.722;2023-07-13T02:51:35;6.70;;;1.00;;
78885;SDS011;68269;52.514;5.722;2023-07-13T02:54:07;4.68;;;0.70;;
78885;SDS011;68269;52.514;5.722;2023-07-13T02:56:39;5.95;;;0.80;;
78885;SDS011;68269;52.514;5.722;2023-07-13T02:59:09;7.40;;;0.85;;
78885;SDS011;68269;52.514;5.722;2023-07-13T03:01:39;7.45;;;0.80;;
78885;SDS011;68269;52.514;5.722;2023-07-13T03:04:08;6.93;;;1.02;;
78885;SDS011;68269;52.514;5.722;2023-07-13T03:06:38;6.38;;;0.82;;
78885;SDS011;68269;52.514;5.722;2023-07-13T03:09:11;5.18;;;0.70;;
78885;SDS011;68269;52.514;5.722;2023-07-13T03:11:44;7.47;;;1.30;;
78885;SDS011;68269;52.514;5.722;2023-07-13T03:14:25;10.20;;;1.20;;
78885;SDS011;68269;52.514;5.722;2023-07-13T03:16:54;7.85;;;1.00;;
78885;SDS011;68269;52.514;5.722;2023-07-13T03:19:27;5.07;;;0.90;;
78885;SDS011;68269;52.514;5.722;2023-07-13T03:21:56;5.78;;;1.00;;
78885;SDS011;68269;52.514;5.722;2023-07-13T03:24:28;9.10;;;1.23;;
78885;SDS011;68269;52.514;5.722;2023-07-13T03:26:58;4.72;;;0.85;;
78885;SDS011;68269;52.514;5.722;2023-07-13T03:29:27;5.55;;;0.70;;
78885;SDS011;68269;52.514;5.722;2023-07-13T03:31:56;6.03;;;0.82;;
78885;SDS011;68269;52.514;5.722;2023-07-13T03:34:26;4.50;;;0.77;;
78885;SDS011;68269;52.514;5.722;2023-07-13T03:36:56;4.60;;;0.90;;
78885;SDS011;68269;52.514;5.722;2023-07-13T03:39:28;6.22;;;0.90;;
78885;SDS011;68269;52.514;5.722;2023-07-13T03:44:27;5.53;;;0.90;;
78885;SDS011;68269;52.514;5.722;2023-07-13T03:46:57;6.57;;;1.15;;
78885;SDS011;68269;52.514;5.722;2023-07-13T03:49:26;7.03;;;1.33;;
78885;SDS011;68269;52.514;5.722;2023-07-13T03:51:55;7.97;;;1.10;;
78885;SDS011;68269;52.514;5.722;2023-07-13T03:54:27;4.85;;;1.08;;
78885;SDS011;68269;52.514;5.722;2023-07-13T03:56:57;4.57;;;0.80;;
78885;SDS011;68269;52.514;5.722;2023-07-13T03:59:28;7.05;;;1.63;;
78885;SDS011;68269;52.514;5.722;2023-07-13T04:01:57;4.97;;;1.23;;
78885;SDS011;68269;52.514;5.722;2023-07-13T04:04:26;5.28;;;0.70;;
78885;SDS011;68269;52.514;5.722;2023-07-13T04:06:56;6.82;;;1.00;;
78885;SDS011;68269;52.514;5.722;2023-07-13T04:09:29;6.55;;;1.10;;
78885;SDS011;68269;52.514;5.722;2023-07-13T04:11:58;4.60;;;0.70;;
78885;SDS011;68269;52.514;5.722;2023-07-13T04:14:27;12.30;;;1.10;;
78885;SDS011;68269;52.514;5.722;2023-07-13T04:16:57;4.90;;;0.98;;
78885;SDS011;68269;52.514;5.722;2023-07-13T04:19:26;8.85;;;1.08;;
78885;SDS011;68269;52.514;5.722;2023-07-13T04:21:56;8.75;;;1.00;;
78885;SDS011;68269;52.514;5.722;2023-07-13T04:24:25;6.47;;;0.82;;
78885;SDS011;68269;52.514;5.722;2023-07-13T04:26:57;8.90;;;1.45;;
78885;SDS011;68269;52.514;5.722;2023-07-13T04:29:28;7.70;;;1.02;;
78885;SDS011;68269;52.514;5.722;2023-07-13T04:31:58;4.30;;;1.10;;
78885;SDS011;68269;52.514;5.722;2023-07-13T04:34:27;6.68;;;1.60;;
78885;SDS011;68269;52.514;5.722;2023-07-13T04:36:56;8.65;;;1.13;;
78885;SDS011;68269;52.514;5.722;2023-07-13T04:39:26;3.38;;;0.80;;
78885;SDS011;68269;52.514;5.722;2023-07-13T04:41:58;4.75;;;0.90;;
78885;SDS011;68269;52.514;5.722;2023-07-13T04:44:27;6.57;;;1.02;;
78885;SDS011;68269;52.514;5.722;2023-07-13T04:46:57;7.95;;;1.23;;
78885;SDS011;68269;52.514;5.722;2023-07-13T04:49:26;5.97;;;1.05;;
78885;SDS011;68269;52.514;5.722;2023-07-13T04:51:56;7.03;;;1.10;;
78885;SDS011;68269;52.514;5.722;2023-07-13T04:54:25;5.72;;;1.20;;
78885;SDS011;68269;52.514;5.722;2023-07-13T04:56:54;5.95;;;0.95;;
78885;SDS011;68269;52.514;5.722;2023-07-13T04:59:26;8.93;;;1.10;;
78885;SDS011;68269;52.514;5.722;2023-07-13T05:01:56;5.00;;;0.93;;
78885;SDS011;68269;52.514;5.722;2023-07-13T05:04:25;6.45;;;1.05;;
78885;SDS011;68269;52.514;5.722;2023-07-13T05:06:54;8.75;;;1.20;;
78885;SDS011;68269;52.514;5.722;2023-07-13T05:09:24;6.22;;;0.95;;
78885;SDS011;68269;52.514;5.722;2023-07-13T05:11:53;5.80;;;1.10;;
78885;SDS011;68269;52.514;5.722;2023-07-13T05:14:25;5.22;;;0.95;;
78885;SDS011;68269;52.514;5.722;2023-07-13T05:16:54;4.97;;;0.80;;
78885;SDS011;68269;52.514;5.722;2023-07-13T05:19:23;5.70;;;1.10;;
78885;SDS011;68269;52.514;5.722;2023-07-13T05:21:52;4.88;;;1.00;;
78885;SDS011;68269;52.514;5.722;2023-07-13T05:24:22;6.88;;;1.27;;
78885;SDS011;68269;52.514;5.722;2023-07-13T05:26:51;7.65;;;1.20;;
78885;SDS011;68269;52.514;5.722;2023-07-13T05:29:21;6.95;;;1.05;;
78885;SDS011;68269;52.514;5.722;2023-07-13T05:31:53;8.18;;;1.15;;
78885;SDS011;68269;52.514;5.722;2023-07-13T05:34:23;12.48;;;1.60;;
78885;SDS011;68269;52.514;5.722;2023-07-13T05:36:52;8.90;;;1.23;;
78885;SDS011;68269;52.514;5.722;2023-07-13T05:39:22;7.63;;;1.20;;
78885;SDS011;68269;52.514;5.722;2023-07-13T05:41:51;7.45;;;0.95;;
78885;SDS011;68269;52.514;5.722;2023-07-13T05:44:21;8.10;;;1.25;;
78885;SDS011;68269;52.514;5.722;2023-07-13T05:46:53;4.28;;;1.10;;
78885;SDS011;68269;52.514;5.722;2023-07-13T05:49:22;8.68;;;1.55;;
78885;SDS011;68269;52.514;5.722;2023-07-13T05:51:52;12.82;;;1.00;;
78885;SDS011;68269;52.514;5.722;2023-07-13T05:54:21;6.38;;;1.20;;
78885;SDS011;68269;52.514;5.722;2023-07-13T05:56:50;7.10;;;1.15;;
78885;SDS011;68269;52.514;5.722;2023-07-13T05:59:20;8.20;;;1.35;;
78885;SDS011;68269;52.514;5.722;2023-07-13T06:01:49;8.25;;;1.15;;
78885;SDS011;68269;52.514;5.722;2023-07-13T06:04:21;8.27;;;1.25;;
78885;SDS011;68269;52.514;5.722;2023-07-13T06:06:51;5.53;;;1.20;;
78885;SDS011;68269;52.514;5.722;2023-07-13T06:09:20;7.80;;;1.08;;
78885;SDS011;68269;52.514;5.722;2023-07-13T06:11:49;8.40;;;1.15;;
78885;SDS011;68269;52.514;5.722;2023-07-13T06:14:19;6.70;;;1.20;;
78885;SDS011;68269;52.514;5.722;2023-07-13T06:16:48;12.05;;;1.58;;
78885;SDS011;68269;52.514;5.722;2023-07-13T06:19:17;5.95;;;0.90;;
78885;SDS011;68269;52.514;5.722;2023-07-13T06:21:49;9.50;;;1.27;;
78885;SDS011;68269;52.514;5.722;2023-07-13T06:24:18;8.07;;;1.40;;
78885;SDS011;68269;52.514;5.722;2023-07-13T06:26:48;10.93;;;1.45;;
78885;SDS011;68269;52.514;5.722;2023-07-13T06:29:17;7.70;;;1.55;;
78885;SDS011;68269;52.514;5.722;2023-07-13T06:31:46;9.00;;;1.70;;
78885;SDS011;68269;52.514;5.722;2023-07-13T06:34:15;8.85;;;1.40;;
78885;SDS011;68269;52.514;5.722;2023-07-13T06:36:47;10.57;;;1.67;;
78885;SDS011;68269;52.514;5.722;2023-07-13T06:39:17;8.43;;;1.98;;
78885;SDS011;68269;52.514;5.722;2023-07-13T06:41:46;13.77;;;1.67;;
78885;SDS011;68269;52.514;5.722;2023-07-13T06:44:17;9.45;;;2.10;;
78885;SDS011;68269;52.514;5.722;2023-07-13T06:46:46;8.38;;;1.60;;
78885;SDS011;68269;52.514;5.722;2023-07-13T06:49:16;9.35;;;1.80;;
78885;SDS011;68269;52.514;5.722;2023-07-13T06:51:48;10.68;;;2.10;;
78885;SDS011;68269;52.514;5.722;2023-07-13T06:54:17;8.55;;;1.63;;
78885;SDS011;68269;52.514;5.722;2023-07-13T06:56:46;7.13;;;1.52;;
78885;SDS011;68269;52.514;5.722;2023-07-13T06:59:15;7.97;;;1.70;;
78885;SDS011;68269;52.514;5.722;2023-07-13T07:01:45;11.57;;;1.90;;
78885;SDS011;68269;52.514;5.722;2023-07-13T07:04:14;11.80;;;2.30;;
78885;SDS011;68269;52.514;5.722;2023-07-13T07:06:43;12.40;;;2.00;;
78885;SDS011;68269;52.514;5.722;2023-07-13T07:09:16;8.73;;;1.92;;
78885;SDS011;68269;52.514;5.722;2023-07-13T07:11:45;8.73;;;1.95;;
78885;SDS011;68269;52.514;5.722;2023-07-13T07:14:14;11.70;;;2.40;;
78885;SDS011;68269;52.514;5.722;2023-07-13T07:16:44;9.38;;;1.90;;
78885;SDS011;68269;52.514;5.722;2023-07-13T07:19:13;9.70;;;2.00;;
78885;SDS011;68269;52.514;5.722;2023-07-13T07:21:42;8.88;;;1.60;;
78885;SDS011;68269;52.514;5.722;2023-07-13T07:24:11;11.57;;;1.83;;
78885;SDS011;68269;52.514;5.722;2023-07-13T07:26:44;12.38;;;1.77;;
78885;SDS011;68269;52.514;5.722;2023-07-13T07:29:13;7.43;;;2.00;;
78885;SDS011;68269;52.514;5.722;2023-07-13T07:31:42;5.55;;;2.03;;
78885;SDS011;68269;52.514;5.722;2023-07-13T07:34:11;10.25;;;1.75;;
78885;SDS011;68269;52.514;5.722;2023-07-13T07:36:41;7.30;;;1.98;;
78885;SDS011;68269;52.514;5.722;2023-07-13T07:39:10;12.13;;;1.95;;
78885;SDS011;68269;52.514;5.722;2023-07-13T07:41:40;9.40;;;2.20;;
78885;SDS011;68269;52.514;5.722;2023-07-13T07:44:12;8.40;;;1.95;;
78885;SDS011;68269;52.514;5.722;2023-07-13T07:46:41;12.25;;;2.53;;
78885;SDS011;68269;52.514;5.722;2023-07-13T07:49:10;10.40;;;2.40;;
78885;SDS011;68269;52.514;5.722;2023-07-13T07:51:39;13.07;;;2.67;;
78885;SDS011;68269;52.514;5.722;2023-07-13T07:54:09;11.90;;;2.92;;
78885;SDS011;68269;52.514;5.722;2023-07-13T07:56:39;11.05;;;2.90;;
78885;SDS011;68269;52.514;5.722;2023-07-13T07:59:08;8.88;;;2.40;;
78885;SDS011;68269;52.514;5.722;2023-07-13T08:01:40;11.98;;;2.55;;
78885;SDS011;68269;52.514;5.722;2023-07-13T08:04:11;8.68;;;1.75;;
78885;SDS011;68269;52.514;5.722;2023-07-13T08:06:41;7.35;;;1.50;;
78885;SDS011;68269;52.514;5.722;2023-07-13T08:09:10;7.82;;;1.40;;
78885;SDS011;68269;52.514;5.722;2023-07-13T08:11:39;5.85;;;1.00;;
78885;SDS011;68269;52.514;5.722;2023-07-13T08:14:09;5.32;;;1.13;;
78885;SDS011;68269;52.514;5.722;2023-07-13T08:16:41;4.40;;;1.10;;
78885;SDS011;68269;52.514;5.722;2023-07-13T08:19:10;4.65;;;1.00;;
78885;SDS011;68269;52.514;5.722;2023-07-13T08:21:39;4.53;;;1.05;;
78885;SDS011;68269;52.514;5.722;2023-07-13T08:24:09;6.18;;;1.30;;
78885;SDS011;68269;52.514;5.722;2023-07-13T08:26:39;6.05;;;1.55;;
78885;SDS011;68269;52.514;5.722;2023-07-13T08:29:08;5.90;;;1.40;;
78885;SDS011;68269;52.514;5.722;2023-07-13T08:31:37;7.68;;;1.42;;
78885;SDS011;68269;52.514;5.722;2023-07-13T08:34:09;6.63;;;1.30;;
78885;SDS011;68269;52.514;5.722;2023-07-13T08:36:40;6.57;;;1.33;;
78885;SDS011;68269;52.514;5.722;2023-07-13T08:39:09;6.75;;;1.55;;
78885;SDS011;68269;52.514;5.722;2023-07-13T08:41:39;7.63;;;1.42;;
78885;SDS011;68269;52.514;5.722;2023-07-13T08:44:30;5.93;;;1.48;;
78885;SDS011;68269;52.514;5.722;2023-07-13T08:47:08;9.57;;;1.50;;
78885;SDS011;68269;52.514;5.722;2023-07-13T08:49:43;6.07;;;1.27;;
78885;SDS011;68269;52.514;5.722;2023-07-13T08:52:14;5.07;;;1.15;;
78885;SDS011;68269;52.514;5.722;2023-07-13T08:54:53;6.50;;;1.52;;
78885;SDS011;68269;52.514;5.722;2023-07-13T08:57:27;4.05;;;1.27;;
78885;SDS011;68269;52.514;5.722;2023-07-13T09:00:01;4.65;;;1.10;;
78885;SDS011;68269;52.514;5.722;2023-07-13T09:02:36;6.93;;;1.30;;
78885;SDS011;68269;52.514;5.722;2023-07-13T09:05:15;5.95;;;1.25;;
78885;SDS011;68269;52.514;5.722;2023-07-13T09:08:00;5.30;;;1.60;;
78885;SDS011;68269;52.514;5.722;2023-07-13T09:10:40;5.13;;;1.60;;
78885;SDS011;68269;52.514;5.722;2023-07-13T09:13:17;4.90;;;1.20;;
78885;SDS011;68269;52.514;5.722;2023-07-13T09:15:52;5.38;;;1.08;;
78885;SDS011;68269;52.514;5.722;2023-07-13T09:18:23;6.68;;;1.27;;
78885;SDS011;68269;52.514;5.722;2023-07-13T09:21:00;8.23;;;1.70;;
78885;SDS011;68269;52.514;5.722;2023-07-13T09:23:32;8.75;;;2.20;;
78885;SDS011;68269;52.514;5.722;2023-07-13T09:26:04;6.20;;;1.55;;
78885;SDS011;68269;52.514;5.722;2023-07-13T09:28:38;6.43;;;1.75;;
78885;SDS011;68269;52.514;5.722;2023-07-13T09:31:11;9.25;;;2.00;;
78885;SDS011;68269;52.514;5.722;2023-07-13T09:33:43;5.45;;;1.80;;
78885;SDS011;68269;52.514;5.722;2023-07-13T09:36:20;7.28;;;1.90;;
78885;SDS011;68269;52.514;5.722;2023-07-13T09:41:27;8.05;;;1.77;;
78885;SDS011;68269;52.514;5.722;2023-07-13T09:44:07;6.47;;;1.55;;
78885;SDS011;68269;52.514;5.722;2023-07-13T09:46:38;6.07;;;1.52;;
78885;SDS011;68269;52.514;5.722;2023-07-13T09:49:11;6.43;;;1.42;;
78885;SDS011;68269;52.514;5.722;2023-07-13T09:51:44;5.18;;;1.20;;
78885;SDS011;68269;52.514;5.722;2023-07-13T09:54:23;3.20;;;0.80;;
78885;SDS011;68269;52.514;5.722;2023-07-13T09:56:54;4.93;;;1.13;;
78885;SDS011;68269;52.514;5.722;2023-07-13T09:59:26;3.95;;;1.00;;
78885;SDS011;68269;52.514;5.722;2023-07-13T10:01:58;4.10;;;0.90;;
78885;SDS011;68269;52.514;5.722;2023-07-13T10:04:31;3.63;;;0.88;;
78885;SDS011;68269;52.514;5.722;2023-07-13T10:07:08;3.10;;;0.90;;
78885;SDS011;68269;52.514;5.722;2023-07-13T10:09:40;4.07;;;0.90;;
78885;SDS011;68269;52.514;5.722;2023-07-13T10:12:13;7.55;;;1.27;;
78885;SDS011;68269;52.514;5.722;2023-07-13T10:14:43;4.45;;;1.17;;
78885;SDS011;68269;52.514;5.722;2023-07-13T10:17:14;3.25;;;0.77;;
78885;SDS011;68269;52.514;5.722;2023-07-13T10:19:45;3.10;;;0.93;;
78885;SDS011;68269;52.514;5.722;2023-07-13T10:22:22;7.35;;;1.10;;
78885;SDS011;68269;52.514;5.722;2023-07-13T10:24:56;4.55;;;1.10;;
78885;SDS011;68269;52.514;5.722;2023-07-13T10:27:28;6.80;;;1.40;;
78885;SDS011;68269;52.514;5.722;2023-07-13T10:30:02;5.03;;;1.15;;
78885;SDS011;68269;52.514;5.722;2023-07-13T10:32:40;4.53;;;1.27;;
78885;SDS011;68269;52.514;5.722;2023-07-13T10:35:11;9.70;;;1.80;;
78885;SDS011;68269;52.514;5.722;2023-07-13T10:37:46;6.40;;;1.63;;
78885;SDS011;68269;52.514;5.722;2023-07-13T10:40:21;4.85;;;1.45;;
78885;SDS011;68269;52.514;5.722;2023-07-13T10:42:56;5.43;;;1.60;;
78885;SDS011;68269;52.514;5.722;2023-07-13T10:45:33;5.55;;;1.58;;
78885;SDS011;68269;52.514;5.722;2023-07-13T10:48:04;5.38;;;1.20;;
78885;SDS011;68269;52.514;5.722;2023-07-13T10:50:36;8.25;;;1.42;;
78885;SDS011;68269;52.514;5.722;2023-07-13T10:53:20;6.88;;;1.50;;
78885;SDS011;68269;52.514;5.722;2023-07-13T10:55:58;5.82;;;1.38;;
78885;SDS011;68269;52.514;5.722;2023-07-13T10:58:32;5.60;;;1.05;;
78885;SDS011;68269;52.514;5.722;2023-07-13T11:01:06;4.90;;;0.80;;
78885;SDS011;68269;52.514;5.722;2023-07-13T11:03:37;3.13;;;1.20;;
78885;SDS011;68269;52.514;5.722;2023-07-13T11:06:31;5.82;;;0.90;;
78885;SDS011;68269;52.514;5.722;2023-07-13T11:09:28;4.13;;;1.00;;
78885;SDS011;68269;52.514;5.722;2023-07-13T11:12:02;4.57;;;1.08;;
78885;SDS011;68269;52.514;5.722;2023-07-13T11:14:43;3.28;;;0.80;;
78885;SDS011;68269;52.514;5.722;2023-07-13T11:17:34;4.20;;;1.08;;
78885;SDS011;68269;52.514;5.722;2023-07-13T11:20:10;4.10;;;1.10;;
78885;SDS011;68269;52.514;5.722;2023-07-13T11:22:50;3.40;;;0.70;;
78885;SDS011;68269;52.514;5.722;2023-07-13T11:25:27;3.95;;;0.90;;
78885;SDS011;68269;52.514;5.722;2023-07-13T11:31:01;5.55;;;1.02;;
78885;SDS011;68269;52.514;5.722;2023-07-13T11:33:51;8.02;;;1.17;;
78885;SDS011;68269;52.514;5.722;2023-07-13T11:36:23;7.88;;;1.00;;
78885;SDS011;68269;52.514;5.722;2023-07-13T11:38:56;4.60;;;0.93;;
78885;SDS011;68269;52.514;5.722;2023-07-13T11:41:34;5.05;;;0.70;;
78885;SDS011;68269;52.514;5.722;2023-07-13T11:44:08;5.75;;;1.00;;
78885;SDS011;68269;52.514;5.722;2023-07-13T11:46:44;2.90;;;1.02;;
78885;SDS011;68269;52.514;5.722;2023-07-13T11:49:17;3.35;;;0.60;;
78885;SDS011;68269;52.514;5.722;2023-07-13T11:51:47;3.75;;;0.85;;
78885;SDS011;68269;52.514;5.722;2023-07-13T11:56:54;4.57;;;0.63;;
78885;SDS011;68269;52.514;5.722;2023-07-13T11:59:27;5.10;;;0.90;;
78885;SDS011;68269;52.514;5.722;2023-07-13T12:01:59;3.75;;;0.82;;
78885;SDS011;68269;52.514;5.722;2023-07-13T12:04:30;5.78;;;1.10;;
78885;SDS011;68269;52.514;5.722;2023-07-13T12:07:04;3.90;;;0.80;;
78885;SDS011;68269;52.514;5.722;2023-07-13T12:09:36;6.13;;;1.20;;
78885;SDS011;68269;52.514;5.722;2023-07-13T12:12:12;3.45;;;0.80;;
78885;SDS011;68269;52.514;5.722;2023-07-13T12:14:45;4.47;;;1.08;;
78885;SDS011;68269;52.514;5.722;2023-07-13T12:17:16;2.83;;;0.65;;
78885;SDS011;68269;52.514;5.722;2023-07-13T12:19:47;5.38;;;1.02;;
78885;SDS011;68269;52.514;5.722;2023-07-13T12:22:19;5.60;;;0.80;;
78885;SDS011;68269;52.514;5.722;2023-07-13T12:24:49;4.60;;;0.70;;
78885;SDS011;68269;52.514;5.722;2023-07-13T12:27:23;4.75;;;0.73;;
78885;SDS011;68269;52.514;5.722;2023-07-13T12:29:57;4.93;;;1.00;;
78885;SDS011;68269;52.514;5.722;2023-07-13T12:32:28;4.07;;;0.80;;
78885;SDS011;68269;52.514;5.722;2023-07-13T12:35:06;3.90;;;0.75;;
78885;SDS011;68269;52.514;5.722;2023-07-13T12:37:42;3.38;;;0.60;;
78885;SDS011;68269;52.514;5.722;2023-07-13T12:40:13;2.88;;;0.70;;
78885;SDS011;68269;52.514;5.722;2023-07-13T12:42:48;6.40;;;0.85;;
78885;SDS011;68269;52.514;5.722;2023-07-13T12:45:19;4.47;;;0.75;;
78885;SDS011;68269;52.514;5.722;2023-07-13T12:47:53;5.68;;;0.80;;
78885;SDS011;68269;52.514;5.722;2023-07-13T12:50:28;3.05;;;0.70;;
78885;SDS011;68269;52.514;5.722;2023-07-13T12:52:59;3.28;;;0.82;;
78885;SDS011;68269;52.514;5.722;2023-07-13T12:55:39;2.85;;;0.50;;
78885;SDS011;68269;52.514;5.722;2023-07-13T12:58:16;4.53;;;0.88;;
78885;SDS011;68269;52.514;5.722;2023-07-13T13:00:48;5.60;;;0.90;;
78885;SDS011;68269;52.514;5.722;2023-07-13T13:03:22;5.50;;;1.00;;
78885;SDS011;68269;52.514;5.722;2023-07-13T13:05:58;4.07;;;0.80;;
78885;SDS011;68269;52.514;5.722;2023-07-13T13:08:29;4.95;;;0.73;;
78885;SDS011;68269;52.514;5.722;2023-07-13T13:10:58;4.60;;;0.70;;
78885;SDS011;68269;52.514;5.722;2023-07-13T13:13:31;6.18;;;1.00;;
78885;SDS011;68269;52.514;5.722;2023-07-13T13:16:01;4.05;;;0.63;;
78885;SDS011;68269;52.514;5.722;2023-07-13T13:18:32;4.18;;;0.70;;
78885;SDS011;68269;52.514;5.722;2023-07-13T13:21:01;5.75;;;0.85;;
78885;SDS011;68269;52.514;5.722;2023-07-13T13:23:31;6.97;;;0.90;;
78885;SDS011;68269;52.514;5.722;2023-07-13T13:26:00;3.35;;;0.75;;
78885;SDS011;68269;52.514;5.722;2023-07-13T13:28:33;5.05;;;0.73;;
78885;SDS011;68269;52.514;5.722;2023-07-13T13:31:03;5.05;;;0.88;;
78885;SDS011;68269;52.514;5.722;2023-07-13T13:33:32;4.43;;;0.77;;
78885;SDS011;68269;52.514;5.722;2023-07-13T13:36:02;5.47;;;0.70;;
78885;SDS011;68269;52.514;5.722;2023-07-13T13:38:32;2.58;;;0.68;;
78885;SDS011;68269;52.514;5.722;2023-07-13T13:41:02;4.78;;;0.73;;
78885;SDS011;68269;52.514;5.722;2023-07-13T13:43:33;5.28;;;1.00;;
78885;SDS011;68269;52.514;5.722;2023-07-13T13:46:05;4.05;;;1.02;;
78885;SDS011;68269;52.514;5.722;2023-07-13T13:48:43;6.35;;;1.00;;
78885;SDS011;68269;52.514;5.722;2023-07-13T13:51:14;4.75;;;0.82;;
78885;SDS011;68269;52.514;5.722;2023-07-13T13:53:45;3.15;;;0.70;;
78885;SDS011;68269;52.514;5.722;2023-07-13T13:56:17;5.43;;;1.02;;
78885;SDS011;68269;52.514;5.722;2023-07-13T13:58:49;5.18;;;1.10;;
78885;SDS011;68269;52.514;5.722;2023-07-13T14:01:19;3.95;;;0.93;;
78885;SDS011;68269;52.514;5.722;2023-07-13T14:03:50;2.38;;;0.60;;
78885;SDS011;68269;52.514;5.722;2023-07-13T14:06:20;4.35;;;0.80;;
78885;SDS011;68269;52.514;5.722;2023-07-13T14:08:49;4.78;;;1.00;;
78885;SDS011;68269;52.514;5.722;2023-07-13T14:11:20;4.80;;;0.80;;
78885;SDS011;68269;52.514;5.722;2023-07-13T14:13:54;3.88;;;0.70;;
78885;SDS011;68269;52.514;5.722;2023-07-13T14:16:26;5.88;;;0.90;;
78885;SDS011;68269;52.514;5.722;2023-07-13T14:18:58;4.30;;;0.80;;
78885;SDS011;68269;52.514;5.722;2023-07-13T14:21:29;4.72;;;0.80;;
78885;SDS011;68269;52.514;5.722;2023-07-13T14:23:58;5.72;;;1.17;;
78885;SDS011;68269;52.514;5.722;2023-07-13T14:26:28;3.50;;;0.90;;
78885;SDS011;68269;52.514;5.722;2023-07-13T14:29:04;5.10;;;1.00;;
78885;SDS011;68269;52.514;5.722;2023-07-13T14:31:40;4.65;;;1.10;;
78885;SDS011;68269;52.514;5.722;2023-07-13T14:34:09;4.32;;;0.95;;
78885;SDS011;68269;52.514;5.722;2023-07-13T14:36:40;5.78;;;1.10;;
78885;SDS011;68269;52.514;5.722;2023-07-13T14:39:12;5.50;;;1.02;;
78885;SDS011;68269;52.514;5.722;2023-07-13T14:41:43;5.20;;;1.20;;
78885;SDS011;68269;52.514;5.722;2023-07-13T14:44:16;4.07;;;0.80;;
78885;SDS011;68269;52.514;5.722;2023-07-13T14:46:49;3.10;;;0.90;;
78885;SDS011;68269;52.514;5.722;2023-07-13T14:49:21;3.22;;;0.77;;
78885;SDS011;68269;52.514;5.722;2023-07-13T14:51:54;3.40;;;0.90;;
78885;SDS011;68269;52.514;5.722;2023-07-13T14:54:24;5.72;;;1.00;;
78885;SDS011;68269;52.514;5.722;2023-07-13T14:56:54;5.68;;;1.00;;
78885;SDS011;68269;52.514;5.722;2023-07-13T14:59:26;6.68;;;1.40;;
78885;SDS011;68269;52.514;5.722;2023-07-13T15:01:55;4.13;;;0.88;;
78885;SDS011;68269;52.514;5.722;2023-07-13T15:04:24;5.13;;;0.95;;
78885;SDS011;68269;52.514;5.722;2023-07-13T15:06:54;7.68;;;0.93;;
78885;SDS011;68269;52.514;5.722;2023-07-13T15:09:25;3.83;;;1.13;;
78885;SDS011;68269;52.514;5.722;2023-07-13T15:11:55;4.65;;;1.10;;
78885;SDS011;68269;52.514;5.722;2023-07-13T15:14:28;3.50;;;0.98;;
78885;SDS011;68269;52.514;5.722;2023-07-13T15:16:58;6.32;;;1.10;;
78885;SDS011;68269;52.514;5.722;2023-07-13T15:19:28;7.03;;;1.20;;
78885;SDS011;68269;52.514;5.722;2023-07-13T15:21:57;6.72;;;0.82;;
78885;SDS011;68269;52.514;5.722;2023-07-13T15:24:27;7.00;;;1.13;;
78885;SDS011;68269;52.514;5.722;2023-07-13T15:26:57;4.25;;;1.10;;
78885;SDS011;68269;52.514;5.722;2023-07-13T15:29:29;3.88;;;0.85;;